• Join FlightAware (Why Join?)
  • Login
  • US Flag 
05:48AM EDT


 

Airport Tracker/Info


-or-


 

Live Flight TrackerFlight Track Log ✈ AAL1242 ✈ 21-Apr-2013 ✈ KDEN - KDFW

Flight Track Log - Related Links

Times and Time Zones

All times are in EDT time to prevent confusion due to time zone crossing. See the AAL1242 flight status page for this flight to view local times or setup timezone preferences in your user account.

Time Position Orientation Groundspeed Altitude Reporting Facility
EDT Latitude Longitude Course Direction KTS MPH feet Rate Location/Type
04:57PM 39.8667 -104.5667 169° South 199 229 7,100  Level Denver TRACON
04:58PM 39.8333 -104.4833 117° Southeast 255 293 8,800 1,500 Climbing Denver TRACON
04:59PM 39.5499 -104.4612 207° Southwest  Level FlightAware Approximate
04:59PM 39.7964 -104.3878 117° Southeast 293 337 10,300  Level Denver Center
05:00PM 39.4316 -104.5000 180° South  Level FlightAware Approximate
05:00PM 39.7153 -104.3628 167° South 306 352 12,400  Level Denver Center
05:01PM 39.3074 -104.4935 169° South  Level FlightAware Approximate
05:01PM 39.6236 -104.4128 203° Southwest 336 387 15,200  Level Denver Center
05:02PM 39.1922 -104.4647 169° South  Level FlightAware Approximate
05:02PM 39.5394 -104.4739 209° Southwest 349 402 17,700  Level Denver Center
05:03PM 39.4433 -104.5064 195° South 372 428 20,000 2,100 Climbing Denver Center
05:04PM 39.3292 -104.4811 170° South 396 456 22,100 1,560 Climbing Denver Center
05:05PM 39.2161 -104.4553 170° South 417 480 23,300 1,320 Climbing Denver Center
05:06PM 39.0950 -104.4281 170° South 417 480 24,900 1,500 Climbing Denver Center
05:07PM 38.9781 -104.4025 170° South 438 504 26,400 1,560 Climbing Denver Center
05:08PM 38.8469 -104.3692 169° South 450 518 28,200 1,740 Climbing Denver Center
05:09PM 38.7231 -104.3411 170° South 448 516 30,100 1,380 Climbing Denver Center
05:10PM 38.6106 -104.2694 154° Southeast 469 540 31,100 900 Climbing Denver Center
05:11PM 38.5072 -104.1614 141° Southeast 476 548 32,000 720 Climbing Denver Center
05:12PM 38.4017 -104.0497 140° Southeast 483 556 32,600 660 Climbing Denver Center
05:13PM 38.2831 -103.9217 140° Southeast 497 572 33,400 780 Climbing Denver Center
05:14PM 38.1794 -103.8108 140° Southeast 505 581 34,300 720 Climbing Denver Center
05:15PM 38.0597 -103.6833 140° Southeast 502 578 35,000 300 Climbing Denver Center
05:16PM 37.9531 -103.5708 140° Southeast 514 592 35,000  Level Denver Center
05:17PM 37.8478 -103.4600 140° Southeast 512 589 35,000  Level Denver Center
05:18PM 37.7256 -103.3294 140° Southeast 513 590 35,000  Level Denver Center
05:19PM 37.6189 -103.2192 141° Southeast 513 590 35,000  Level Denver Center
05:20PM 37.4972 -103.0908 140° Southeast 509 586 35,000  Level Denver Center
05:21PM 37.4086 -102.9594 130° Southeast 514 592 35,000  Level Denver Center
05:22PM 37.3664 -102.8950 129° Southeast 510 587 35,000  Level Albuquerque Center
05:23PM 37.2633 -102.7472 131° Southeast 505 581 35,000  Level Albuquerque Center
05:24PM 37.1731 -102.6186 131° Southeast 509 586 35,000  Level Albuquerque Center
05:25PM 37.0794 -102.4856 131° Southeast 513 590 35,000  Level Albuquerque Center
05:25PM 37.0333 -102.4225 132° Southeast 512 589 35,000  Level Albuquerque Center
05:26PM 36.9444 -102.2953 131° Southeast 509 586 35,000  Level Albuquerque Center
05:27PM 36.8364 -102.1464 132° Southeast 516 594 35,000  Level Albuquerque Center
05:28PM 36.8597 -102.1796 132° Southeast  Level FlightAware Approximate
05:29PM 36.7456 -102.0183 131° Southeast 517 595 35,000  Level Albuquerque Center
05:30PM 36.6406 -101.8733 132° Southeast 510 587 35,000  Level Albuquerque Center
05:31PM 36.5533 -101.7528 132° Southeast 508 585 35,000  Level Albuquerque Center
05:32PM 36.4403 -101.5967 132° Southeast 507 583 35,000  Level Albuquerque Center
05:33PM 36.3544 -101.4808 133° Southeast 507 583 35,000  Level Albuquerque Center
05:34PM 36.2511 -101.3397 132° Southeast 503 579 35,000  Level Albuquerque Center
05:35PM 36.1597 -101.2133 132° Southeast 511 588 35,000  Level Albuquerque Center
05:36PM 36.0653 -101.0842 132° Southeast 511 588 35,000  Level Albuquerque Center
05:37PM 35.9525 -100.9311 132° Southeast 504 580 35,000  Level Albuquerque Center
05:38PM 35.8567 -100.8025 133° Southeast 505 581 35,000  Level Albuquerque Center
05:39PM 35.7611 -100.6758 133° Southeast 505 581 35,000  Level Albuquerque Center
05:40PM 35.6678 -100.5500 132° Southeast 501 577 35,000  Level Albuquerque Center
05:41PM 35.5722 -100.4233 133° Southeast 503 579 35,000  Level Albuquerque Center
05:42PM 35.4781 -100.2958 132° Southeast 504 580 35,000  Level Albuquerque Center
05:43PM 35.3608 -100.1442 133° Southeast 508 585 35,000  Level Albuquerque Center
05:44PM 35.2656 -100.0186 133° Southeast 506 582 35,000  Level Albuquerque Center
05:45PM 35.1706 -99.8933 133° Southeast 505 581 35,000  Level Albuquerque Center
05:46PM 35.0733 -99.7658 133° Southeast 511 588 35,000  Level Albuquerque Center
05:47PM 34.9753 -99.6403 134° Southeast 512 589 35,000  Level Albuquerque Center
05:47PM 34.9347 -99.5867 133° Southeast 508 585 35,000  Level Fort Worth Center
05:48PM 34.8344 -99.4625 135° Southeast 513 590 35,000  Level Fort Worth Center
05:49PM 34.7386 -99.3364 133° Southeast 513 590 35,000  Level Fort Worth Center
05:50PM 34.6403 -99.2106 134° Southeast 513 590 35,000 -120 Level Fort Worth Center
05:51PM 34.5458 -99.0900 134° Southeast 508 585 34,800 -720 Descending Fort Worth Center
05:52PM 34.4453 -98.9672 135° Southeast 508 585 33,600 -1,200 Descending Fort Worth Center
05:53PM 34.3508 -98.8447 133° Southeast 508 585 32,400 -1,320 Descending Fort Worth Center
05:54PM 34.2519 -98.7225 134° Southeast 508 585 31,000 -1,980 Descending Fort Worth Center
05:55PM 34.1531 -98.5981 134° Southeast 508 585 28,500 -3,060 Descending Fort Worth Center
05:56PM 34.0561 -98.4714 133° Southeast 513 590 24,900 -3,240 Descending Fort Worth Center
05:57PM 33.9592 -98.3500 134° Southeast 507 583 22,100 -2,100 Descending Fort Worth Center
05:58PM 33.8658 -98.2314 133° Southeast 507 583 20,800 -1,200 Descending Fort Worth Center
05:59PM 33.7831 -98.1281 134° Southeast 454 522 19,800 -1,560 Descending Fort Worth Center
06:00PM 33.7064 -98.0328 134° Southeast 414 476 17,700 -2,220 Descending Fort Worth Center
06:01PM 33.6297 -97.9397 135° Southeast 392 451 15,400 -2,100 Descending Fort Worth Center
06:02PM 33.5528 -97.8472 135° Southeast 386 444 13,500 -2,040 Descending Fort Worth Center
06:03PM 33.4903 -97.7722 135° Southeast 373 429 11,400 -1,740 Descending Fort Worth Center
06:04PM 33.4156 -97.6822 135° Southeast 350 403 10,100 -1,200 Descending Fort Worth Center
06:05PM 33.3572 -97.6100 134° Southeast 310 357 9,000 -1,200 Descending Fort Worth Center
06:06PM 33.3072 -97.5478 134° Southeast 294 338 7,800 -1,380 Descending Fort Worth Center
06:07PM 33.2531 -97.4781 133° Southeast 273 314 6,300 -1,440 Descending Fort Worth Center
06:08PM 33.2050 -97.4208 135° Southeast 268 308 5,000 -660 Descending Fort Worth Center
06:09PM 33.1528 -97.3539 133° Southeast 263 303 5,000 -600 Level Fort Worth Center
06:10PM 33.1067 -97.3019 137° Southeast 250 288 3,900 -1,020 Descending Fort Worth Center
06:11PM 33.0544 -97.2400 135° Southeast 244 281 3,000 -900 Descending Fort Worth Center